Edinboro, Pennsylvania
Current Conditions -  °F | °C
As of 4:51 PM on Thursday 23 Oct 2014 (Local Time) from KERI Reporting Station
Clear Clear  
Wind Chill: 57°   Ceiling: Unl
Heat Index: 57°   Visibility: 10mi
Dew Point: 45°   Wind: 8mph
Humidity: 64%   Direction: 280°W
Pressure: 30.09"   Gusts: NA
Location:  41.88°N, 80.13°W
Report Text: KERI 232051Z 28007KT 10SM CLR 14/07 A3009 RMK AO2 SLP190 T01390072 57016
Loading
Personal Weather Stations






























Interactive Weather Map New forecast layout! Learn more

10-Day Weather Forecast

Advertisements
Track Severe Weather on mobile